Time;durP1;ratioP1;P1;durP2;ratioP2;P2;SDS_P1;SDS_P2;PMS_P1;PMS_P2;Temp;Humidity;BMP_temperature;BMP_pressure;BME280_temperature;BME280_humidity;BME280_pressure;Samples;Min_cycle;Max_cycle;Signal;HPM_P1;HPM_P2
2023/10/15 00:00:13;;;;;;;3.97;2.28;;;6.30;99.90;;;;;;5030891;28;20029;-56
2023/10/15 00:02:45;;;;;;;3.47;1.70;;;6.40;99.90;;;;;;5030902;28;20072;-52
2023/10/15 00:05:20;;;;;;;4.28;1.85;;;6.40;99.90;;;;;;5030637;28;20029;-51
2023/10/15 00:07:47;;;;;;;5.75;2.13;;;6.40;99.90;;;;;;5031198;28;20120;-53
2023/10/15 00:10:18;;;;;;;5.82;2.15;;;6.40;99.90;;;;;;5030593;28;20091;-46
2023/10/15 00:12:47;;;;;;;6.28;2.08;;;6.40;99.90;;;;;;5030830;28;20029;-52
2023/10/15 00:15:19;;;;;;;5.57;1.75;;;6.30;99.90;;;;;;5030161;28;20024;-48
2023/10/15 00:17:50;;;;;;;5.28;1.98;;;6.30;99.90;;;;;;5030287;28;20026;-56
2023/10/15 00:20:17;;;;;;;4.53;2.00;;;6.40;99.90;;;;;;5030497;28;20101;-54
2023/10/15 00:22:52;;;;;;;3.78;1.95;;;6.40;99.90;;;;;;5030686;28;20044;-56
2023/10/15 00:25:19;;;;;;;4.68;2.55;;;6.40;99.90;;;;;;5030635;28;20420;-53
2023/10/15 00:27:52;;;;;;;4.80;2.45;;;6.40;99.90;;;;;;5030496;28;20435;-55
2023/10/15 00:30:19;;;;;;;3.08;1.77;;;6.40;99.90;;;;;;5030595;28;20083;-48
2023/10/15 00:32:45;;;;;;;5.40;2.65;;;6.40;99.90;;;;;;5030499;28;20064;-53
2023/10/15 00:35:13;;;;;;;5.22;2.72;;;6.50;99.90;;;;;;5030636;28;20071;-53
2023/10/15 00:37:51;;;;;;;6.60;3.60;;;6.40;99.90;;;;;;5030694;28;20025;-56
2023/10/15 00:40:20;;;;;;;8.55;2.72;;;6.40;99.90;;;;;;5018102;28;20528;-55
2023/10/15 00:42:46;;;;;;;8.10;2.67;;;6.30;99.90;;;;;;5030463;28;20398;-48
2023/10/15 00:45:16;;;;;;;5.95;2.53;;;6.40;99.90;;;;;;5030397;28;20099;-56
2023/10/15 00:47:43;;;;;;;6.40;2.25;;;6.30;99.90;;;;;;5030530;28;20118;-51
2023/10/15 00:50:09;;;;;;;4.88;2.28;;;6.30;99.90;;;;;;5030207;28;20108;-58
2023/10/15 00:52:42;;;;;;;4.68;2.33;;;6.30;99.90;;;;;;5030490;28;20025;-57
2023/10/15 00:55:19;;;;;;;5.45;2.38;;;6.30;99.90;;;;;;5030220;28;20025;-56
2023/10/15 00:57:55;;;;;;;5.97;2.40;;;6.20;99.90;;;;;;5030284;28;20079;-59
2023/10/15 01:00:54;;;;;;;4.93;2.45;;;6.10;99.90;;;;;;5030295;28;20040;-53
2023/10/15 01:03:14;;;;;;;3.92;2.38;;;6.20;99.90;;;;;;5028911;28;20033;-54
2023/10/15 01:05:51;;;;;;;8.57;3.17;;;6.20;99.90;;;;;;5030088;28;20124;-57
2023/10/15 01:08:18;;;;;;;10.27;3.53;;;6.20;99.90;;;;;;5030292;28;20029;-54
2023/10/15 01:10:43;;;;;;;7.50;3.08;;;6.20;99.90;;;;;;5030259;28;20451;-49
2023/10/15 01:13:30;;;;;;;7.55;2.88;;;6.20;99.90;;;;;;5030249;28;20033;-47
2023/10/15 01:16:02;;;;;;;7.05;2.67;;;6.20;99.90;;;;;;5030083;28;20388;-51
2023/10/15 01:18:27;;;;;;;8.82;4.05;;;6.20;99.90;;;;;;5030300;28;20037;-53
2023/10/15 01:20:53;;;;;;;17.20;5.90;;;6.10;99.90;;;;;;5029928;28;20017;-52
2023/10/15 01:26:23;;;;;;;7.45;3.20;;;6.20;99.90;;;;;;5017858;28;20045;-51
2023/10/15 01:28:49;;;;;;;4.90;2.13;;;6.20;99.90;;;;;;5033500;28;20119;-53
2023/10/15 01:31:17;;;;;;;4.82;2.25;;;6.20;99.90;;;;;;5033556;28;20037;-50
2023/10/15 01:33:49;;;;;;;5.00;2.28;;;6.10;99.90;;;;;;5033807;28;20029;-57
2023/10/15 01:36:21;;;;;;;4.90;2.20;;;5.90;99.90;;;;;;5033469;28;20488;-52
2023/10/15 01:38:54;;;;;;;3.75;1.63;;;5.80;99.90;;;;;;5033629;28;20029;-51
2023/10/15 01:41:21;;;;;;;4.40;2.13;;;5.80;99.90;;;;;;5033652;28;20163;-52
2023/10/15 01:43:49;;;;;;;4.13;2.10;;;5.80;99.90;;;;;;5033599;28;20021;-48
2023/10/15 01:49:07;;;;;;;6.80;2.15;;;5.90;99.90;;;;;;5024785;28;20037;-50
2023/10/15 01:51:39;;;;;;;5.68;2.22;;;5.90;99.90;;;;;;5033045;28;20044;-52
2023/10/15 01:54:12;;;;;;;6.60;2.15;;;5.90;99.90;;;;;;5033364;28;20022;-53
2023/10/15 01:56:38;;;;;;;5.28;2.60;;;5.90;99.90;;;;;;5033110;28;20064;-49
2023/10/15 01:59:10;;;;;;;4.88;2.30;;;5.90;99.90;;;;;;5033155;28;20103;-50
2023/10/15 02:01:49;;;;;;;5.07;2.25;;;5.90;99.90;;;;;;5033056;28;20026;-51
2023/10/15 02:06:48;;;;;;;5.70;2.53;;;5.90;99.90;;;;;;5032886;28;20290;-56
2023/10/15 02:09:21;;;;;;;5.63;2.65;;;5.80;99.90;;;;;;5033078;28;20059;-51
2023/10/15 02:11:53;;;;;;;9.40;2.60;;;5.80;99.90;;;;;;5032648;28;20548;-48
2023/10/15 02:14:30;;;;;;;6.35;2.67;;;5.70;99.90;;;;;;5032896;28;20025;-47
2023/10/15 02:16:59;;;;;;;5.45;2.50;;;5.70;99.90;;;;;;5032700;28;20032;-53
2023/10/15 02:19:34;;;;;;;5.50;2.92;;;5.70;99.90;;;;;;5032948;28;20107;-48
2023/10/15 02:22:12;;;;;;;6.55;2.92;;;5.60;99.90;;;;;;5032769;28;20150;-50
2023/10/15 02:24:37;;;;;;;12.48;3.03;;;5.60;99.90;;;;;;5032670;28;20111;-49
2023/10/15 02:27:06;;;;;;;7.18;2.63;;;5.40;99.90;;;;;;5032370;28;20069;-55
2023/10/15 02:32:07;;;;;;;6.10;2.80;;;5.30;99.90;;;;;;5032525;28;20063;-48
2023/10/15 02:34:39;;;;;;;6.90;2.95;;;5.30;99.90;;;;;;5032220;28;20036;-47
2023/10/15 02:37:05;;;;;;;6.63;2.65;;;5.30;99.90;;;;;;5032401;28;20037;-54
2023/10/15 02:39:36;;;;;;;6.72;2.15;;;5.30;99.90;;;;;;5031221;28;20087;-53
2023/10/15 02:42:03;;;;;;;5.38;2.58;;;5.30;99.90;;;;;;5032248;28;20124;-49
2023/10/15 02:44:32;;;;;;;4.88;2.10;;;5.20;99.90;;;;;;5032369;28;20476;-47
2023/10/15 02:47:10;;;;;;;6.53;2.88;;;5.20;99.90;;;;;;5032238;28;20053;-51
2023/10/15 02:49:59;;;;;;;6.05;2.55;;;5.10;99.90;;;;;;5032126;28;20037;-50
2023/10/15 02:52:26;;;;;;;8.45;2.90;;;5.10;99.90;;;;;;5032391;28;20037;-51
2023/10/15 02:54:52;;;;;;;4.53;2.33;;;5.10;99.90;;;;;;5032171;28;20034;-52
2023/10/15 02:57:18;;;;;;;6.75;2.78;;;5.10;99.90;;;;;;5032074;28;20358;-53
2023/10/15 02:59:52;;;;;;;4.13;2.35;;;5.20;99.90;;;;;;5032110;28;20027;-53
2023/10/15 03:02:19;;;;;;;4.47;2.15;;;5.20;99.90;;;;;;5031817;28;20037;-50
2023/10/15 03:05:07;;;;;;;4.55;2.10;;;5.10;99.90;;;;;;5031910;28;20026;-50
2023/10/15 03:07:33;;;;;;;4.93;1.98;;;5.20;99.90;;;;;;5031952;28;20538;-51
2023/10/15 03:09:59;;;;;;;6.82;2.60;;;5.20;99.90;;;;;;5031910;28;20034;-53
2023/10/15 03:12:25;;;;;;;4.85;2.13;;;5.20;99.90;;;;;;5031815;28;20155;-53
2023/10/15 03:14:54;;;;;;;6.30;2.28;;;5.20;99.90;;;;;;5030315;28;20120;-48
2023/10/15 03:17:29;;;;;;;7.20;2.33;;;5.10;99.90;;;;;;5031527;28;20036;-49
2023/10/15 03:22:59;;;;;;;7.03;2.15;;;5.00;99.90;;;;;;5009397;28;20029;-49
2023/10/15 03:25:26;;;;;;;5.68;2.40;;;5.00;99.90;;;;;;5025973;28;20162;-52
2023/10/15 03:27:54;;;;;;;4.90;2.03;;;5.00;99.90;;;;;;5031342;28;20389;-54
2023/10/15 03:30:23;;;;;;;4.03;1.67;;;5.10;99.90;;;;;;5031551;28;20075;-49
2023/10/15 03:32:52;;;;;;;2.53;1.40;;;5.10;99.90;;;;;;5062152;28;20070;-49
2023/10/15 03:35:30;;;;;;;4.95;2.17;;;5.10;99.90;;;;;;5030006;28;20041;-52
2023/10/15 03:38:06;;;;;;;5.38;2.03;;;5.10;99.90;;;;;;5031206;28;20119;-57
2023/10/15 03:43:06;;;;;;;4.93;1.70;;;5.10;99.90;;;;;;5031322;28;20026;-51
2023/10/15 03:45:50;;;;;;;2.95;1.60;;;5.10;99.90;;;;;;5031117;28;20044;-56
2023/10/15 03:48:36;;;;;;;2.45;1.40;;;5.10;99.90;;;;;;5031139;28;20037;-55
2023/10/15 03:51:05;;;;;;;4.82;1.70;;;5.10;99.90;;;;;;5030934;28;20029;-50
2023/10/15 03:53:32;;;;;;;5.60;1.90;;;5.10;99.90;;;;;;5031189;28;20065;-50
2023/10/15 03:55:58;;;;;;;5.63;1.90;;;5.10;99.90;;;;;;5030872;28;20258;-55
2023/10/15 03:58:26;;;;;;;5.13;1.88;;;5.00;99.90;;;;;;5030979;28;20036;-59
2023/10/15 04:01:16;;;;;;;3.73;1.70;;;4.90;99.90;;;;;;5031085;28;20018;-56
2023/10/15 04:03:47;;;;;;;5.05;1.98;;;4.90;99.90;;;;;;5030805;28;20438;-53
2023/10/15 04:06:14;;;;;;;5.32;1.73;;;4.90;99.90;;;;;;5030760;28;20033;-55
2023/10/15 04:09:26;;;;;;;4.93;2.17;;;4.90;99.90;;;;;;5030888;28;20026;-55
2023/10/15 04:11:38;;;;;;;3.92;2.22;;;4.80;99.90;;;;;;5015941;28;20037;-55
2023/10/15 04:16:51;;;;;;;4.28;1.83;;;4.70;99.90;;;;;;5031005;28;20071;-54
2023/10/15 04:19:17;;;;;;;1.73;1.15;;;4.70;99.90;;;;;;5030547;28;20050;-50
2023/10/15 04:21:44;;;;;;;3.60;1.30;;;4.70;99.90;;;;;;5030543;28;20506;-52
2023/10/15 04:24:14;;;;;;;3.97;1.40;;;4.70;99.90;;;;;;5030864;28;20112;-53
2023/10/15 04:26:44;;;;;;;2.70;1.38;;;4.70;99.90;;;;;;5030508;28;20033;-57
2023/10/15 04:29:16;;;;;;;2.15;1.15;;;4.70;99.90;;;;;;5030704;28;20030;-54
2023/10/15 04:32:04;;;;;;;1.75;1.13;;;4.70;99.90;;;;;;5030334;28;20042;-52
2023/10/15 04:34:32;;;;;;;1.67;0.98;;;4.70;99.90;;;;;;5030579;28;20053;-57
2023/10/15 04:36:57;;;;;;;1.90;0.90;;;4.70;99.90;;;;;;5030579;28;20029;-57
2023/10/15 04:39:23;;;;;;;6.43;1.40;;;4.70;99.90;;;;;;5030605;28;20029;-51
2023/10/15 04:41:49;;;;;;;4.05;1.17;;;4.70;99.90;;;;;;5030360;28;20472;-56
2023/10/15 04:44:31;;;;;;;1.13;0.80;;;4.70;99.90;;;;;;5030320;28;20076;-52
2023/10/15 04:47:05;;;;;;;2.42;1.30;;;4.70;99.90;;;;;;5030352;28;20492;-60
2023/10/15 04:49:33;;;;;;;6.78;1.30;;;4.80;99.90;;;;;;5030577;28;20084;-52
2023/10/15 04:51:59;;;;;;;1.98;1.02;;;4.80;99.90;;;;;;5030507;28;20036;-60
2023/10/15 04:54:25;;;;;;;2.30;1.00;;;4.80;99.90;;;;;;5030385;28;20030;-56
2023/10/15 04:56:54;;;;;;;2.58;1.00;;;4.80;99.90;;;;;;5030178;28;20083;-57
2023/10/15 04:59:20;;;;;;;2.28;1.08;;;4.80;99.90;;;;;;5030592;28;20030;-50
2023/10/15 05:01:48;;;;;;;5.57;1.52;;;4.80;99.90;;;;;;5030505;28;20104;-54
2023/10/15 05:04:14;;;;;;;2.70;1.20;;;4.70;99.90;;;;;;5034373;28;20039;-53
2023/10/15 05:06:39;;;;;;;3.00;1.10;;;4.70;99.90;;;;;;5034067;28;20042;-53
2023/10/15 05:09:09;;;;;;;3.65;0.95;;;4.70;99.90;;;;;;5034069;28;20013;-52
2023/10/15 05:11:35;;;;;;;4.13;0.95;;;4.70;99.90;;;;;;5033940;28;20026;-53
2023/10/15 05:14:00;;;;;;;5.28;1.30;;;4.60;99.90;;;;;;5033945;28;20037;-55
2023/10/15 05:16:26;;;;;;;3.47;1.20;;;4.70;99.90;;;;;;5034142;28;20029;-54
2023/10/15 05:18:52;;;;;;;3.03;1.25;;;4.60;99.90;;;;;;5032723;28;20499;-52
2023/10/15 05:21:17;;;;;;;2.63;1.02;;;4.60;99.90;;;;;;5033712;28;20408;-56
2023/10/15 05:23:43;;;;;;;3.30;0.80;;;4.60;99.90;;;;;;5033786;28;20087;-55
2023/10/15 05:26:08;;;;;;;4.97;1.02;;;4.60;99.90;;;;;;5033592;28;20030;-55
2023/10/15 05:28:34;;;;;;;3.03;1.10;;;4.70;99.90;;;;;;5033810;28;20030;-52
2023/10/15 05:31:00;;;;;;;4.43;1.10;;;4.60;99.90;;;;;;5033448;28;20056;-50
2023/10/15 05:33:27;;;;;;;3.53;1.30;;;4.60;99.90;;;;;;5033678;28;20049;-48
2023/10/15 05:35:52;;;;;;;2.38;1.00;;;4.60;99.90;;;;;;5033466;28;20400;-48
2023/10/15 05:38:18;;;;;;;2.08;1.10;;;4.60;99.90;;;;;;5033394;28;20021;-52
2023/10/15 05:40:46;;;;;;;1.83;1.00;;;4.60;99.90;;;;;;5033476;28;20038;-48
2023/10/15 05:43:12;;;;;;;4.63;0.93;;;4.50;99.90;;;;;;5033342;28;20041;-48
2023/10/15 05:45:39;;;;;;;3.63;1.30;;;4.50;99.90;;;;;;5033540;28;20123;-49
2023/10/15 05:48:05;;;;;;;4.00;1.20;;;4.60;99.90;;;;;;5033385;28;20026;-48
2023/10/15 05:50:30;;;;;;;3.00;1.25;;;4.50;99.90;;;;;;5033248;28;20032;-48
2023/10/15 05:52:56;;;;;;;3.50;1.30;;;4.60;99.90;;;;;;5033327;28;20017;-49
2023/10/15 05:55:22;;;;;;;2.30;1.13;;;4.60;99.90;;;;;;5033132;28;20080;-48
2023/10/15 05:57:48;;;;;;;2.22;1.02;;;4.50;99.90;;;;;;5033324;28;20400;-49
2023/10/15 06:00:26;;;;;;;2.05;1.08;;;4.50;99.90;;;;;;5033132;28;20506;-49
2023/10/15 06:02:53;;;;;;;4.65;1.30;;;4.50;99.90;;;;;;5033219;28;20113;-48
2023/10/15 06:05:19;;;;;;;2.13;1.00;;;4.30;99.90;;;;;;5032863;28;20108;-50
2023/10/15 06:07:45;;;;;;;3.65;1.48;;;4.30;99.90;;;;;;5031725;28;20105;-50
2023/10/15 06:10:12;;;;;;;4.38;1.52;;;4.30;99.90;;;;;;5033027;28;20037;-48
2023/10/15 06:12:38;;;;;;;4.13;1.30;;;4.30;99.90;;;;;;5032854;28;20121;-50
2023/10/15 06:15:06;;;;;;;4.80;1.90;;;4.30;99.90;;;;;;5032656;28;20025;-53
2023/10/15 06:17:32;;;;;;;4.22;1.75;;;4.30;99.90;;;;;;5032684;28;20560;-49
2023/10/15 06:19:58;;;;;;;2.45;1.40;;;4.20;99.90;;;;;;5032628;28;20013;-51
2023/10/15 06:22:25;;;;;;;2.83;1.52;;;4.30;99.90;;;;;;5032526;28;20526;-49
2023/10/15 06:24:52;;;;;;;2.20;1.13;;;4.30;99.90;;;;;;5032825;28;20077;-49
2023/10/15 06:27:18;;;;;;;6.40;1.50;;;4.20;99.90;;;;;;5032285;28;20029;-49
2023/10/15 06:29:44;;;;;;;3.55;1.50;;;4.20;99.90;;;;;;5032653;28;20057;-49
2023/10/15 06:32:10;;;;;;;1.85;1.10;;;4.20;99.90;;;;;;5031923;28;20072;-48
2023/10/15 06:34:39;;;;;;;9.82;2.17;;;4.30;99.90;;;;;;5035036;28;20017;-49
2023/10/15 06:37:08;;;;;;;6.68;1.52;;;4.30;99.90;;;;;;5035854;28;20595;-48
2023/10/15 06:39:34;;;;;;;4.23;1.70;;;4.40;99.90;;;;;;5032258;28;20385;-50
2023/10/15 06:42:00;;;;;;;3.10;1.00;;;4.50;99.90;;;;;;5032316;28;20025;-50
2023/10/15 06:44:26;;;;;;;1.58;0.90;;;4.40;99.90;;;;;;5032531;28;20052;-49
2023/10/15 06:46:51;;;;;;;2.22;1.15;;;4.40;99.90;;;;;;5032158;28;20116;-49
2023/10/15 06:49:18;;;;;;;2.88;1.30;;;4.30;99.90;;;;;;5032004;28;20480;-49
2023/10/15 06:51:44;;;;;;;2.38;1.40;;;4.20;99.90;;;;;;5032195;28;20063;-50
2023/10/15 06:54:11;;;;;;;5.57;1.70;;;4.20;99.90;;;;;;5032171;28;20071;-50
2023/10/15 06:56:37;;;;;;;4.35;1.88;;;4.10;99.90;;;;;;5032190;28;20056;-48
2023/10/15 06:59:03;;;;;;;4.88;1.52;;;4.10;99.90;;;;;;5031949;28;20036;-51
2023/10/15 07:01:30;;;;;;;2.88;1.40;;;4.10;99.90;;;;;;5030454;28;20084;-49
2023/10/15 07:03:56;;;;;;;4.30;2.10;;;4.10;99.90;;;;;;5031594;28;20026;-49
2023/10/15 07:06:22;;;;;;;6.10;1.52;;;4.20;99.90;;;;;;5031628;28;20515;-50
2023/10/15 07:08:49;;;;;;;3.53;1.85;;;4.20;99.90;;;;;;5031742;28;20100;-51
2023/10/15 07:11:15;;;;;;;3.97;1.92;;;4.20;99.90;;;;;;5028193;28;20429;-52
2023/10/15 07:13:41;;;;;;;5.30;1.48;;;4.40;99.90;;;;;;5031591;28;20128;-49
2023/10/15 07:16:06;;;;;;;2.33;1.45;;;4.40;99.90;;;;;;5031625;28;20393;-54
2023/10/15 07:18:34;;;;;;;2.47;1.50;;;4.50;99.90;;;;;;5031570;28;20083;-51
2023/10/15 07:21:00;;;;;;;4.32;1.88;;;4.50;99.90;;;;;;5031544;28;20040;-48
2023/10/15 07:23:26;;;;;;;3.90;1.60;;;4.60;99.90;;;;;;5031466;28;20017;-49
2023/10/15 07:25:51;;;;;;;3.83;1.70;;;4.70;99.90;;;;;;5030689;28;20033;-53
2023/10/15 07:28:17;;;;;;;2.50;1.40;;;4.70;99.90;;;;;;5031382;28;20033;-54
2023/10/15 07:30:43;;;;;;;3.03;1.40;;;4.70;99.90;;;;;;5031156;28;20013;-52
2023/10/15 07:33:09;;;;;;;3.80;1.55;;;4.70;99.90;;;;;;5031311;28;20484;-56
2023/10/15 07:35:35;;;;;;;2.42;1.27;;;4.80;99.90;;;;;;5031521;28;20022;-50
2023/10/15 07:38:04;;;;;;;2.25;1.13;;;4.90;99.90;;;;;;5031330;28;20067;-53
2023/10/15 07:40:32;;;;;;;4.90;1.30;;;4.90;99.90;;;;;;5031233;28;20075;-56
2023/10/15 07:42:59;;;;;;;1.92;1.08;;;5.00;99.90;;;;;;5030605;28;20088;-53
2023/10/15 07:45:29;;;;;;;2.00;1.10;;;5.10;99.90;;;;;;5031035;28;20436;-51
2023/10/15 07:47:59;;;;;;;5.82;1.42;;;5.20;99.90;;;;;;5031240;28;20044;-50
2023/10/15 07:50:26;;;;;;;2.83;1.63;;;5.40;99.90;;;;;;5031196;28;20025;-50
2023/10/15 07:52:53;;;;;;;3.25;1.25;;;5.40;99.90;;;;;;5030893;28;20038;-49
2023/10/15 07:55:19;;;;;;;3.63;1.10;;;5.50;99.90;;;;;;5030979;28;20024;-50
2023/10/15 07:57:46;;;;;;;4.40;1.48;;;5.60;99.90;;;;;;5029439;28;20021;-49
2023/10/15 08:00:16;;;;;;;3.72;1.58;;;5.70;99.90;;;;;;5029176;28;20018;-51
2023/10/15 08:02:42;;;;;;;;;;;5.80;99.90;;;;;;5029541;28;20483;-51
2023/10/15 08:05:11;;;;;;;2.70;1.10;;;5.90;99.90;;;;;;5029106;28;19955;-50
2023/10/15 08:07:38;;;;;;;2.80;1.40;;;6.00;99.90;;;;;;5028819;28;20065;-48
2023/10/15 08:10:04;;;;;;;8.07;1.70;;;6.10;99.90;;;;;;5029088;28;20067;-54
2023/10/15 08:12:30;;;;;;;4.47;1.30;;;6.30;99.90;;;;;;5029727;28;20422;-50
2023/10/15 08:14:57;;;;;;;2.97;1.30;;;6.40;99.90;;;;;;5030854;28;20032;-50
2023/10/15 08:17:23;;;;;;;2.40;1.20;;;6.60;99.90;;;;;;5030919;28;20021;-52
2023/10/15 08:19:50;;;;;;;3.72;1.30;;;6.80;99.90;;;;;;5030776;28;20477;-50
2023/10/15 08:22:15;;;;;;;3.58;1.38;;;7.00;99.90;;;;;;5030755;28;20026;-52
2023/10/15 08:24:41;;;;;;;3.55;1.40;;;7.50;99.90;;;;;;5030744;28;20535;-55
2023/10/15 08:27:07;;;;;;;1.45;0.90;;;8.00;99.90;;;;;;5030721;28;20484;-51
2023/10/15 08:29:33;;;;;;;2.25;1.10;;;8.60;99.90;;;;;;5030548;28;20053;-53
2023/10/15 08:31:58;;;;;;;2.38;1.10;;;9.00;99.90;;;;;;5030509;28;20056;-49
2023/10/15 08:34:24;;;;;;;4.90;1.63;;;9.30;99.90;;;;;;5030375;28;20017;-53
2023/10/15 08:36:50;;;;;;;3.58;0.95;;;9.60;99.90;;;;;;5030825;28;20109;-53
2023/10/15 08:39:15;;;;;;;4.43;1.40;;;10.20;99.90;;;;;;5034849;28;20024;-51
2023/10/15 08:41:43;;;;;;;4.35;1.20;;;10.60;99.90;;;;;;5034639;28;20117;-54
2023/10/15 08:44:10;;;;;;;1.75;0.93;;;11.50;99.90;;;;;;5066356;28;20122;-52
2023/10/15 08:46:37;;;;;;;2.70;1.00;;;12.50;99.90;;;;;;5034522;28;20033;-53
2023/10/15 08:49:08;;;;;;;3.42;0.73;;;13.00;99.90;;;;;;5034544;28;20021;-50
2023/10/15 08:51:35;;;;;;;2.65;0.98;;;13.60;99.90;;;;;;5034601;28;20025;-53
2023/10/15 08:54:04;;;;;;;2.05;0.70;;;14.30;99.90;;;;;;5034456;28;20079;-50
2023/10/15 08:56:31;;;;;;;2.00;0.68;;;14.80;99.90;;;;;;5034384;28;20049;-52
2023/10/15 08:58:57;;;;;;;2.50;0.70;;;15.20;99.90;;;;;;5034224;28;20029;-53
2023/10/15 09:01:23;;;;;;;1.40;0.60;;;15.70;99.90;;;;;;5034268;28;20018;-54
2023/10/15 09:03:52;;;;;;;1.15;0.77;;;16.30;99.90;;;;;;5034230;28;20029;-53
2023/10/15 09:06:19;;;;;;;3.58;0.70;;;16.70;99.90;;;;;;5034165;28;20508;-53
2023/10/15 09:08:50;;;;;;;2.13;0.80;;;16.40;99.90;;;;;;5034112;28;20034;-54
2023/10/15 09:11:16;;;;;;;2.25;0.50;;;16.90;99.90;;;;;;5034132;28;20037;-51
2023/10/15 09:13:42;;;;;;;3.85;0.73;;;16.90;99.90;;;;;;5034270;28;20105;-54
2023/10/15 09:16:08;;;;;;;2.40;0.65;;;17.20;99.90;;;;;;5033905;28;20476;-54
2023/10/15 09:18:37;;;;;;;3.28;0.98;;;17.20;99.90;;;;;;5033974;28;20423;-56
2023/10/15 09:21:06;;;;;;;3.03;0.70;;;17.60;99.90;;;;;;5033796;28;20033;-57
2023/10/15 09:23:35;;;;;;;3.15;1.00;;;17.60;99.90;;;;;;5033998;28;20439;-54
2023/10/15 09:26:01;;;;;;;4.15;0.68;;;17.90;99.90;;;;;;5033698;28;20488;-57
2023/10/15 09:28:27;;;;;;;2.75;0.70;;;17.90;99.90;;;;;;5034027;28;20029;-59
2023/10/15 09:31:05;;;;;;;4.18;0.80;;;17.90;99.90;;;;;;5033557;28;20033;-57
2023/10/15 09:33:32;;;;;;;3.20;0.77;;;18.20;99.90;;;;;;5033757;28;20438;-56
2023/10/15 09:35:58;;;;;;;1.88;0.57;;;18.10;99.00;;;;;;5033486;28;20082;-59
2023/10/15 09:38:25;;;;;;;2.83;0.60;;;18.40;99.00;;;;;;5033655;28;20032;-56
2023/10/15 09:40:55;;;;;;;2.30;0.55;;;18.60;99.30;;;;;;5033526;28;20024;-53
2023/10/15 09:43:24;;;;;;;1.65;0.60;;;18.80;96.30;;;;;;5033441;28;20052;-51
2023/10/15 09:45:50;;;;;;;1.77;0.60;;;18.60;97.50;;;;;;5033375;28;20029;-50
2023/10/15 09:48:18;;;;;;;0.90;0.60;;;18.60;96.10;;;;;;5033156;28;20177;-54
2023/10/15 09:50:45;;;;;;;1.08;0.40;;;18.80;97.30;;;;;;5033203;28;20104;-50
2023/10/15 09:53:12;;;;;;;3.22;0.63;;;19.00;97.70;;;;;;5032026;28;20376;-54
2023/10/15 09:55:42;;;;;;;1.58;0.50;;;19.40;96.20;;;;;;5033305;28;20022;-52
2023/10/15 09:58:10;;;;;;;2.20;0.80;;;19.40;94.80;;;;;;5033162;28;20036;-53
2023/10/15 10:03:49;;;;;;;1.92;0.60;;;20.20;92.40;;;;;;5033172;28;20108;-54
2023/10/15 10:06:50;;;;;;;2.45;0.70;;;20.50;94.60;;;;;;5021018;28;20040;-50
2023/10/15 10:09:46;;;;;;;1.35;0.70;;;20.60;92.20;;;;;;5032942;28;20476;-55
2023/10/15 10:12:43;;;;;;;4.50;0.98;;;20.60;92.40;;;;;;5032832;28;20492;-57
2023/10/15 10:15:32;;;;;;;1.58;0.50;;;20.40;91.50;;;;;;5033122;28;20112;-59
2023/10/15 10:17:59;;;;;;;2.08;0.50;;;20.20;90.10;;;;;;5032918;28;20499;-53
2023/10/15 10:20:37;;;;;;;3.42;0.73;;;20.70;92.20;;;;;;5032823;28;20465;-54
2023/10/15 10:23:06;;;;;;;1.95;0.52;;;20.40;90.20;;;;;;5032929;28;20033;-53
2023/10/15 10:25:42;;;;;;;0.60;0.40;;;20.70;88.30;;;;;;5032729;28;20481;-53
2023/10/15 10:28:19;;;;;;;5.90;0.63;;;21.70;90.20;;;;;;5032572;28;20052;-54
2023/10/15 10:30:56;;;;;;;1.48;0.45;;;22.20;87.40;;;;;;5032039;28;20025;-53
2023/10/15 10:33:46;;;;;;;2.28;0.55;;;21.80;83.30;;;;;;5029279;28;20044;-56
2023/10/15 10:36:13;;;;;;;2.13;0.50;;;22.10;85.40;;;;;;5032155;28;20029;-55
2023/10/15 10:38:39;;;;;;;2.35;0.60;;;21.90;86.40;;;;;;5032838;28;20025;-60
2023/10/15 10:41:13;;;;;;;3.10;0.68;;;22.20;86.70;;;;;;5026124;28;20033;-54
2023/10/15 10:43:43;;;;;;;2.35;0.70;;;22.00;83.50;;;;;;5032292;28;20018;-49
2023/10/15 10:46:22;;;;;;;1.85;0.55;;;21.80;83.90;;;;;;5032289;28;20029;-52
2023/10/15 10:49:05;;;;;;;2.22;0.80;;;20.50;81.00;;;;;;5031902;28;20014;-52
2023/10/15 10:51:32;;;;;;;2.78;0.65;;;20.60;83.90;;;;;;5032629;28;20029;-54
2023/10/15 10:53:57;;;;;;;2.65;0.55;;;20.50;81.50;;;;;;5031962;28;20020;-49
2023/10/15 10:56:44;;;;;;;1.52;0.70;;;20.00;80.30;;;;;;5032200;28;20025;-49
2023/10/15 10:59:11;;;;;;;2.72;0.73;;;20.10;83.10;;;;;;5031734;28;20048;-50
2023/10/15 11:01:42;;;;;;;4.40;1.08;;;20.70;81.60;;;;;;5031106;28;20538;-53
2023/10/15 11:04:09;;;;;;;1.30;0.43;;;21.10;80.10;;;;;;5031962;28;20038;-53
2023/10/15 11:06:42;;;;;;;2.65;1.13;;;22.00;81.70;;;;;;5031706;28;20044;-52
2023/10/15 11:09:19;;;;;;;1.08;0.50;;;22.40;77.70;;;;;;5031896;28;20024;-49
2023/10/15 11:11:53;;;;;;;2.40;0.80;;;22.70;77.60;;;;;;5031734;28;20022;-52
2023/10/15 11:14:24;;;;;;;1.40;0.60;;;23.20;81.00;;;;;;5031783;28;20028;-54
2023/10/15 11:16:51;;;;;;;1.42;0.60;;;23.20;75.40;;;;;;5031676;28;20091;-52
2023/10/15 11:19:24;;;;;;;3.42;0.70;;;23.30;77.10;;;;;;5031437;28;20029;-50
2023/10/15 11:21:51;;;;;;;1.75;0.60;;;21.80;76.40;;;;;;5030931;28;20037;-54
2023/10/15 11:24:24;;;;;;;2.63;0.77;;;21.40;83.40;;;;;;5031401;28;20095;-50
2023/10/15 11:26:53;;;;;;;2.35;0.60;;;21.00;80.40;;;;;;5031490;28;20069;-56
2023/10/15 11:29:22;;;;;;;1.55;0.50;;;20.90;79.30;;;;;;5031043;28;20044;-52
2023/10/15 11:31:48;;;;;;;7.22;0.63;;;20.50;77.90;;;;;;5031360;28;20053;-57
2023/10/15 11:34:19;;;;;;;1.65;0.77;;;20.60;80.10;;;;;;5031137;28;20025;-52
2023/10/15 11:36:48;;;;;;;3.65;0.95;;;20.80;80.10;;;;;;5031346;28;20556;-52
2023/10/15 11:39:18;;;;;;;1.95;0.75;;;20.10;79.10;;;;;;5031099;28;20037;-56
2023/10/15 11:41:51;;;;;;;2.65;0.70;;;19.50;76.70;;;;;;5031251;28;20018;-54
2023/10/15 11:44:25;;;;;;;2.63;0.90;;;20.20;80.70;;;;;;5031142;28;20088;-52
2023/10/15 11:46:57;;;;;;;2.70;0.60;;;20.50;76.10;;;;;;5030948;28;20025;-53
2023/10/15 11:49:24;;;;;;;3.15;0.70;;;20.50;80.50;;;;;;5031004;28;20034;-52
2023/10/15 11:51:55;;;;;;;2.35;0.60;;;20.30;79.20;;;;;;5030736;28;20049;-54
2023/10/15 11:54:29;;;;;;;1.55;0.60;;;20.20;76.50;;;;;;5031187;28;20080;-53
2023/10/15 11:56:56;;;;;;;2.75;0.80;;;20.30;78.30;;;;;;5025968;28;20049;-55
2023/10/15 11:59:22;;;;;;;1.70;0.68;;;20.30;75.00;;;;;;5030935;28;20010;-56
2023/10/15 12:01:51;;;;;;;2.22;0.80;;;20.30;76.80;;;;;;5030707;28;20451;-53
2023/10/15 12:04:20;;;;;;;;;;;20.80;80.50;;;;;;5031220;28;20067;-58
2023/10/15 12:06:47;;;;;;;7.70;0.85;;;20.70;75.70;;;;;;5030577;28;19917;-52
2023/10/15 12:09:14;;;;;;;2.22;0.60;;;20.50;72.90;;;;;;5030737;28;20017;-54
2023/10/15 12:11:40;;;;;;;5.07;0.93;;;20.80;76.00;;;;;;5030583;28;20025;-56
2023/10/15 12:14:06;;;;;;;1.60;0.60;;;20.40;74.80;;;;;;5030635;28;20030;-53
2023/10/15 12:16:32;;;;;;;3.47;0.90;;;20.50;74.40;;;;;;5030418;28;20099;-53
2023/10/15 12:18:57;;;;;;;2.20;0.65;;;20.40;79.50;;;;;;5030557;28;20029;-53
2023/10/15 12:21:23;;;;;;;1.92;0.82;;;19.70;78.50;;;;;;5030571;28;20029;-55
2023/10/15 12:23:49;;;;;;;1.13;0.60;;;19.40;77.80;;;;;;5029652;28;20112;-56
2023/10/15 12:26:14;;;;;;;4.75;0.70;;;19.50;79.20;;;;;;5030478;28;20112;-53
2023/10/15 12:28:47;;;;;;;1.38;0.68;;;18.60;77.70;;;;;;5030679;28;20624;-58
2023/10/15 12:31:13;;;;;;;2.45;0.63;;;18.60;82.00;;;;;;5030065;28;20052;-51
2023/10/15 12:33:39;;;;;;;1.17;0.60;;;18.30;79.80;;;;;;5030565;28;20053;-56
2023/10/15 12:36:07;;;;;;;3.80;1.00;;;17.80;81.60;;;;;;5030485;28;20056;-55
2023/10/15 12:38:33;;;;;;;2.78;0.90;;;17.90;82.30;;;;;;5029628;28;20041;-57
2023/10/15 12:41:00;;;;;;;2.90;0.90;;;17.90;82.40;;;;;;5028688;28;20029;-56
2023/10/15 12:43:26;;;;;;;1.13;0.57;;;18.00;81.30;;;;;;5028971;28;20017;-54
2023/10/15 12:45:53;;;;;;;1.50;0.70;;;17.90;81.50;;;;;;5029809;28;20130;-55
2023/10/15 12:48:19;;;;;;;3.10;0.80;;;18.10;82.80;;;;;;5030439;28;20037;-54
2023/10/15 12:50:49;;;;;;;2.40;0.85;;;18.00;82.90;;;;;;5030486;28;20383;-52
2023/10/15 12:53:15;;;;;;;1.50;0.70;;;18.10;81.90;;;;;;5030596;28;20496;-53
2023/10/15 12:55:42;;;;;;;3.10;0.90;;;17.70;80.50;;;;;;5030336;28;20108;-49
2023/10/15 12:58:10;;;;;;;6.25;0.77;;;17.50;81.10;;;;;;5030198;28;20052;-61
2023/10/15 13:00:39;;;;;;;4.03;0.88;;;17.40;78.70;;;;;;5030255;28;20021;-57
2023/10/15 13:03:05;;;;;;;;;;;16.80;78.20;;;;;;5030957;28;20060;-53
2023/10/15 13:05:31;;;;;;;2.00;0.95;;;16.90;82.40;;;;;;5030211;28;19913;-54
2023/10/15 13:07:57;;;;;;;2.20;0.63;;;16.70;83.00;;;;;;5030358;28;20053;-58
2023/10/15 13:10:22;;;;;;;2.25;0.70;;;16.40;77.70;;;;;;5030251;28;20038;-52
2023/10/15 13:12:50;;;;;;;0.95;0.50;;;16.20;81.60;;;;;;5029949;28;20021;-58
2023/10/15 13:15:18;;;;;;;3.28;1.10;;;16.20;82.50;;;;;;5030254;28;20032;-51
2023/10/15 13:17:44;;;;;;;2.15;0.70;;;16.00;80.80;;;;;;5030157;28;20025;-60
2023/10/15 13:20:13;;;;;;;2.42;0.68;;;16.00;79.60;;;;;;5030253;28;20036;-58
2023/10/15 13:22:43;;;;;;;1.17;0.50;;;16.00;82.90;;;;;;5029663;28;20025;-57
2023/10/15 13:25:11;;;;;;;2.35;0.80;;;16.10;83.50;;;;;;5032859;28;20033;-56